Airfield :
LOGIN :

Register | Disclaimer

   EN    FR    IT 

 










Legend :    VFR   Marginal VFR   IFR   Intensive IFR   Very Intensive IFR
Visi :
Ceiling :
>= 8 km
>= 3000ft
5 to 8 km
1000 to 3000 ft
1500m to 5 km
500 to 1000 ft
800 to 1500m
200 to 500 ft
< 800m
< 200 ft
Symbols :   Thunderstorms  Fog  Heavy snow  Heavy precipitations  Wind > 20 kt
SIGMETs :     Misc.  Thunderstorms  Icing  Turbulence  Mountain Waves  Volcanic Ashes






- Airport Elevation : 286 ft
- IATA code : FFD


EGVA - RAF Fairford

CURRENT METAR :
  • 260256Z AUTO 19011KT 9999 FEW023 SCT055 07/07 A2984 RMK AO2 SLP110 T00710067 57018 $

EXPIRED METARs :
  • 260156Z AUTO 18009KT 9999 FEW011 FEW025 BKN055 07/07 A2986 RMK AO2 SLP117 T00700069 $
  • 260146Z AUTO 19009KT 9999 FEW011 FEW025 SCT044 BKN055 07/07 A2986 RMK AO2 SLP117 $
  • 260056Z AUTO 17006KT 9999 FEW026 OVC039 07/07 A2987 RMK AO2 SLP120 T00700070 $

Expired Forecast.



MET'MAP, your aeronautical weather chart ! - Copyright ORBIFLY December 2007 - Disclaimer

ORBIFLY MET'MAP TEAM :

Programming & Development : Alexandra Zaïnal
Concept & original design : Baudouin d'Aumeries
Assistance for programming : Marc-Olivier Méhu
Technical & hardware support : Manuel Goepfert

Contact : metmap@orbifly.com




SOURCES & CREDITS :

   NOAA